sensor_id;sensor_type;location;lat;lon;timestamp;temperature;humidity
75217;HTU21D;63800;51.972;5.682;2023-03-11T00:00:25;0.86;89.10
75217;HTU21D;63800;51.972;5.682;2023-03-11T00:02:53;0.95;89.60
75217;HTU21D;63800;51.972;5.682;2023-03-11T00:05:26;1.05;89.29
75217;HTU21D;63800;51.972;5.682;2023-03-11T00:07:52;1.06;88.60
75217;HTU21D;63800;51.972;5.682;2023-03-11T00:10:24;0.99;87.77
75217;HTU21D;63800;51.972;5.682;2023-03-11T00:12:49;0.92;87.36
75217;HTU21D;63800;51.972;5.682;2023-03-11T00:15:15;1.06;87.72
75217;HTU21D;63800;51.972;5.682;2023-03-11T00:17:41;0.99;87.28
75217;HTU21D;63800;51.972;5.682;2023-03-11T00:20:10;1.06;85.89
75217;HTU21D;63800;51.972;5.682;2023-03-11T00:22:39;1.01;87.83
75217;HTU21D;63800;51.972;5.682;2023-03-11T00:25:05;0.90;87.19
75217;HTU21D;63800;51.972;5.682;2023-03-11T00:27:30;0.93;87.13
75217;HTU21D;63800;51.972;5.682;2023-03-11T00:29:55;0.92;86.95
75217;HTU21D;63800;51.972;5.682;2023-03-11T00:32:21;0.88;87.28
75217;HTU21D;63800;51.972;5.682;2023-03-11T00:34:46;0.82;87.38
75217;HTU21D;63800;51.972;5.682;2023-03-11T00:37:12;0.84;87.97
75217;HTU21D;63800;51.972;5.682;2023-03-11T00:39:38;0.80;89.35
75217;HTU21D;63800;51.972;5.682;2023-03-11T00:42:03;0.88;89.01
75217;HTU21D;63800;51.972;5.682;2023-03-11T00:44:29;0.83;88.14
75217;HTU21D;63800;51.972;5.682;2023-03-11T00:46:54;0.91;87.99
75217;HTU21D;63800;51.972;5.682;2023-03-11T00:49:20;0.80;87.09
75217;HTU21D;63800;51.972;5.682;2023-03-11T00:51:45;1.01;87.16
75217;HTU21D;63800;51.972;5.682;2023-03-11T00:54:10;0.94;86.40
75217;HTU21D;63800;51.972;5.682;2023-03-11T00:56:36;0.82;86.98
75217;HTU21D;63800;51.972;5.682;2023-03-11T00:59:02;0.84;87.12
75217;HTU21D;63800;51.972;5.682;2023-03-11T01:01:28;0.81;87.60
75217;HTU21D;63800;51.972;5.682;2023-03-11T01:03:53;0.68;86.43
75217;HTU21D;63800;51.972;5.682;2023-03-11T01:06:18;0.81;87.50
75217;HTU21D;63800;51.972;5.682;2023-03-11T01:08:44;0.63;87.41
75217;HTU21D;63800;51.972;5.682;2023-03-11T01:11:09;0.77;88.03
75217;HTU21D;63800;51.972;5.682;2023-03-11T01:13:35;0.77;86.36
75217;HTU21D;63800;51.972;5.682;2023-03-11T01:16:01;0.77;86.04
75217;HTU21D;63800;51.972;5.682;2023-03-11T01:18:26;0.67;86.93
75217;HTU21D;63800;51.972;5.682;2023-03-11T01:20:53;0.54;87.42
75217;HTU21D;63800;51.972;5.682;2023-03-11T01:23:19;0.63;85.74
75217;HTU21D;63800;51.972;5.682;2023-03-11T01:25:45;0.62;86.80
75217;HTU21D;63800;51.972;5.682;2023-03-11T01:28:11;0.65;86.54
75217;HTU21D;63800;51.972;5.682;2023-03-11T01:30:38;0.64;86.47
75217;HTU21D;63800;51.972;5.682;2023-03-11T01:33:06;0.86;84.80
75217;HTU21D;63800;51.972;5.682;2023-03-11T01:35:32;0.80;85.50
75217;HTU21D;63800;51.972;5.682;2023-03-11T01:37:58;0.86;84.80
75217;HTU21D;63800;51.972;5.682;2023-03-11T01:40:30;0.93;84.35
75217;HTU21D;63800;51.972;5.682;2023-03-11T01:42:58;1.01;84.69
75217;HTU21D;63800;51.972;5.682;2023-03-11T01:48:14;0.93;85.58
75217;HTU21D;63800;51.972;5.682;2023-03-11T01:50:45;0.91;85.64
75217;HTU21D;63800;51.972;5.682;2023-03-11T01:53:14;0.92;85.26
75217;HTU21D;63800;51.972;5.682;2023-03-11T01:55:40;1.02;85.09
75217;HTU21D;63800;51.972;5.682;2023-03-11T01:58:08;1.07;84.79
75217;HTU21D;63800;51.972;5.682;2023-03-11T02:00:36;1.12;85.26
75217;HTU21D;63800;51.972;5.682;2023-03-11T02:03:06;1.06;84.64
75217;HTU21D;63800;51.972;5.682;2023-03-11T02:05:33;1.06;85.71
75217;HTU21D;63800;51.972;5.682;2023-03-11T02:07:59;0.98;85.36
75217;HTU21D;63800;51.972;5.682;2023-03-11T02:10:25;0.88;84.64
75217;HTU21D;63800;51.972;5.682;2023-03-11T02:12:51;1.10;84.69
75217;HTU21D;63800;51.972;5.682;2023-03-11T02:15:16;1.04;84.42
75217;HTU21D;63800;51.972;5.682;2023-03-11T02:17:45;1.05;83.96
75217;HTU21D;63800;51.972;5.682;2023-03-11T02:22:54;1.18;83.03
75217;HTU21D;63800;51.972;5.682;2023-03-11T02:25:50;1.22;83.14
75217;HTU21D;63800;51.972;5.682;2023-03-11T02:28:18;1.05;83.00
75217;HTU21D;63800;51.972;5.682;2023-03-11T02:30:45;1.02;84.45
75217;HTU21D;63800;51.972;5.682;2023-03-11T02:33:12;1.16;85.56
75217;HTU21D;63800;51.972;5.682;2023-03-11T02:35:40;1.02;83.78
75217;HTU21D;63800;51.972;5.682;2023-03-11T02:38:06;1.13;84.16
75217;HTU21D;63800;51.972;5.682;2023-03-11T02:40:46;1.17;84.29
75217;HTU21D;63800;51.972;5.682;2023-03-11T02:43:15;1.17;82.62
75217;HTU21D;63800;51.972;5.682;2023-03-11T02:45:44;1.19;83.29
75217;HTU21D;63800;51.972;5.682;2023-03-11T02:48:10;1.25;82.95
75217;HTU21D;63800;51.972;5.682;2023-03-11T02:50:37;1.22;83.05
75217;HTU21D;63800;51.972;5.682;2023-03-11T02:53:04;1.40;82.37
75217;HTU21D;63800;51.972;5.682;2023-03-11T02:55:30;1.39;82.18
75217;HTU21D;63800;51.972;5.682;2023-03-11T02:57:56;1.33;83.41
75217;HTU21D;63800;51.972;5.682;2023-03-11T03:00:21;1.14;83.94
75217;HTU21D;63800;51.972;5.682;2023-03-11T03:02:47;1.23;83.90
75217;HTU21D;63800;51.972;5.682;2023-03-11T03:05:17;1.26;82.14
75217;HTU21D;63800;51.972;5.682;2023-03-11T03:07:47;1.24;82.94
75217;HTU21D;63800;51.972;5.682;2023-03-11T03:10:18;1.28;82.41
75217;HTU21D;63800;51.972;5.682;2023-03-11T03:12:43;1.05;82.95
75217;HTU21D;63800;51.972;5.682;2023-03-11T03:15:09;1.28;82.66
75217;HTU21D;63800;51.972;5.682;2023-03-11T03:17:35;1.46;82.55
75217;HTU21D;63800;51.972;5.682;2023-03-11T03:20:01;1.24;84.30
75217;HTU21D;63800;51.972;5.682;2023-03-11T03:22:29;1.42;83.67
75217;HTU21D;63800;51.972;5.682;2023-03-11T03:24:54;1.43;83.43
75217;HTU21D;63800;51.972;5.682;2023-03-11T03:27:20;1.41;83.10
75217;HTU21D;63800;51.972;5.682;2023-03-11T03:29:45;1.26;84.05
75217;HTU21D;63800;51.972;5.682;2023-03-11T03:32:11;1.42;83.26
75217;HTU21D;63800;51.972;5.682;2023-03-11T03:34:36;0.91;84.07
75217;HTU21D;63800;51.972;5.682;2023-03-11T03:37:02;1.18;83.32
75217;HTU21D;63800;51.972;5.682;2023-03-11T03:39:27;0.84;86.81
75217;HTU21D;63800;51.972;5.682;2023-03-11T03:41:52;1.08;84.16
75217;HTU21D;63800;51.972;5.682;2023-03-11T03:44:21;1.21;84.55
75217;HTU21D;63800;51.972;5.682;2023-03-11T03:46:46;1.14;83.80
75217;HTU21D;63800;51.972;5.682;2023-03-11T03:49:12;1.02;83.41
75217;HTU21D;63800;51.972;5.682;2023-03-11T03:51:37;0.97;85.52
75217;HTU21D;63800;51.972;5.682;2023-03-11T03:54:03;0.62;85.18
75217;HTU21D;63800;51.972;5.682;2023-03-11T03:56:28;0.71;87.00
75217;HTU21D;63800;51.972;5.682;2023-03-11T03:58:54;0.80;86.51
75217;HTU21D;63800;51.972;5.682;2023-03-11T04:01:20;0.94;86.46
75217;HTU21D;63800;51.972;5.682;2023-03-11T04:03:45;0.89;83.94
75217;HTU21D;63800;51.972;5.682;2023-03-11T04:06:23;0.88;84.85
75217;HTU21D;63800;51.972;5.682;2023-03-11T04:08:50;0.64;85.06
75217;HTU21D;63800;51.972;5.682;2023-03-11T04:11:16;0.42;88.13
75217;HTU21D;63800;51.972;5.682;2023-03-11T04:13:42;0.37;88.21
75217;HTU21D;63800;51.972;5.682;2023-03-11T04:16:09;0.49;85.78
75217;HTU21D;63800;51.972;5.682;2023-03-11T04:18:37;0.49;87.54
75217;HTU21D;63800;51.972;5.682;2023-03-11T04:21:05;0.36;87.62
75217;HTU21D;63800;51.972;5.682;2023-03-11T04:23:31;0.73;85.35
75217;HTU21D;63800;51.972;5.682;2023-03-11T04:25:57;1.01;83.55
75217;HTU21D;63800;51.972;5.682;2023-03-11T04:28:22;0.48;86.54
75217;HTU21D;63800;51.972;5.682;2023-03-11T04:30:48;0.62;84.73
75217;HTU21D;63800;51.972;5.682;2023-03-11T04:33:14;0.59;85.68
75217;HTU21D;63800;51.972;5.682;2023-03-11T04:35:39;0.40;86.03
75217;HTU21D;63800;51.972;5.682;2023-03-11T04:38:04;0.31;87.86
75217;HTU21D;63800;51.972;5.682;2023-03-11T04:40:30;0.31;88.41
75217;HTU21D;63800;51.972;5.682;2023-03-11T04:42:55;0.34;88.86
75217;HTU21D;63800;51.972;5.682;2023-03-11T04:45:21;0.14;89.17
75217;HTU21D;63800;51.972;5.682;2023-03-11T04:47:50;0.07;89.81
75217;HTU21D;63800;51.972;5.682;2023-03-11T04:50:17;-0.02;90.18
75217;HTU21D;63800;51.972;5.682;2023-03-11T04:52:43;-0.02;89.97
75217;HTU21D;63800;51.972;5.682;2023-03-11T04:55:09;-0.01;89.63
75217;HTU21D;63800;51.972;5.682;2023-03-11T04:57:35;-0.08;89.58
75217;HTU21D;63800;51.972;5.682;2023-03-11T05:00:00;-0.17;91.07
75217;HTU21D;63800;51.972;5.682;2023-03-11T05:02:26;-0.24;90.92
75217;HTU21D;63800;51.972;5.682;2023-03-11T05:04:52;-0.14;91.67
75217;HTU21D;63800;51.972;5.682;2023-03-11T05:07:17;-0.08;91.50
75217;HTU21D;63800;51.972;5.682;2023-03-11T05:09:43;-0.07;91.83
75217;HTU21D;63800;51.972;5.682;2023-03-11T05:12:11;-0.05;91.37
75217;HTU21D;63800;51.972;5.682;2023-03-11T05:14:36;-0.10;90.75
75217;HTU21D;63800;51.972;5.682;2023-03-11T05:17:02;-0.22;91.07
75217;HTU21D;63800;51.972;5.682;2023-03-11T05:19:27;-0.34;92.28
75217;HTU21D;63800;51.972;5.682;2023-03-11T05:21:57;-0.37;91.76
75217;HTU21D;63800;51.972;5.682;2023-03-11T05:24:23;-0.32;91.62
75217;HTU21D;63800;51.972;5.682;2023-03-11T05:26:50;-0.31;87.03
75217;HTU21D;63800;51.972;5.682;2023-03-11T05:29:16;-0.32;89.15
75217;HTU21D;63800;51.972;5.682;2023-03-11T05:31:41;-0.23;90.50
75217;HTU21D;63800;51.972;5.682;2023-03-11T05:34:07;-0.23;89.47
75217;HTU21D;63800;51.972;5.682;2023-03-11T05:36:33;-0.19;88.57
75217;HTU21D;63800;51.972;5.682;2023-03-11T05:38:58;-0.00;88.98
75217;HTU21D;63800;51.972;5.682;2023-03-11T05:41:24;-0.09;88.61
75217;HTU21D;63800;51.972;5.682;2023-03-11T05:43:49;-0.05;89.25
75217;HTU21D;63800;51.972;5.682;2023-03-11T05:46:15;-0.22;90.45
75217;HTU21D;63800;51.972;5.682;2023-03-11T05:48:40;-0.35;90.31
75217;HTU21D;63800;51.972;5.682;2023-03-11T05:51:07;-0.34;90.82
75217;HTU21D;63800;51.972;5.682;2023-03-11T05:53:33;-0.56;92.11
75217;HTU21D;63800;51.972;5.682;2023-03-11T05:55:59;-0.77;92.40
75217;HTU21D;63800;51.972;5.682;2023-03-11T05:58:26;-0.88;93.47
75217;HTU21D;63800;51.972;5.682;2023-03-11T06:00:52;-0.95;93.81
75217;HTU21D;63800;51.972;5.682;2023-03-11T06:03:17;-1.05;93.79
75217;HTU21D;63800;51.972;5.682;2023-03-11T06:05:46;-0.93;92.85
75217;HTU21D;63800;51.972;5.682;2023-03-11T06:08:12;-0.89;93.60
75217;HTU21D;63800;51.972;5.682;2023-03-11T06:10:38;-0.93;92.99
75217;HTU21D;63800;51.972;5.682;2023-03-11T06:13:05;-0.91;92.92
75217;HTU21D;63800;51.972;5.682;2023-03-11T06:15:35;-0.90;92.97
75217;HTU21D;63800;51.972;5.682;2023-03-11T06:18:00;-0.90;93.14
75217;HTU21D;63800;51.972;5.682;2023-03-11T06:20:26;-0.83;92.84
75217;HTU21D;63800;51.972;5.682;2023-03-11T06:22:51;-0.76;92.78
75217;HTU21D;63800;51.972;5.682;2023-03-11T06:25:17;-0.82;93.17
75217;HTU21D;63800;51.972;5.682;2023-03-11T06:27:43;-0.73;92.75
75217;HTU21D;63800;51.972;5.682;2023-03-11T06:30:09;-0.70;93.17
75217;HTU21D;63800;51.972;5.682;2023-03-11T06:32:35;-0.65;92.98
75217;HTU21D;63800;51.972;5.682;2023-03-11T06:35:02;-0.59;92.55
75217;HTU21D;63800;51.972;5.682;2023-03-11T06:37:28;-0.62;93.34
75217;HTU21D;63800;51.972;5.682;2023-03-11T06:39:54;-0.65;93.53
75217;HTU21D;63800;51.972;5.682;2023-03-11T06:42:20;-0.76;93.78
75217;HTU21D;63800;51.972;5.682;2023-03-11T06:44:48;-0.75;93.13
75217;HTU21D;63800;51.972;5.682;2023-03-11T06:47:14;-0.68;92.95
75217;HTU21D;63800;51.972;5.682;2023-03-11T06:49:40;-0.71;94.23
75217;HTU21D;63800;51.972;5.682;2023-03-11T06:52:08;-0.71;93.88
75217;HTU21D;63800;51.972;5.682;2023-03-11T06:54:34;-0.74;93.75
75217;HTU21D;63800;51.972;5.682;2023-03-11T06:57:00;-0.70;93.77
75217;HTU21D;63800;51.972;5.682;2023-03-11T06:59:26;-0.73;93.94
75217;HTU21D;63800;51.972;5.682;2023-03-11T07:01:53;-0.74;94.03
75217;HTU21D;63800;51.972;5.682;2023-03-11T07:04:19;-0.72;93.62
75217;HTU21D;63800;51.972;5.682;2023-03-11T07:06:44;-0.72;92.44
75217;HTU21D;63800;51.972;5.682;2023-03-11T07:09:10;-0.54;91.79
75217;HTU21D;63800;51.972;5.682;2023-03-11T07:11:35;-0.43;90.98
75217;HTU21D;63800;51.972;5.682;2023-03-11T07:14:01;-0.41;90.89
75217;HTU21D;63800;51.972;5.682;2023-03-11T07:16:28;-0.39;90.92
75217;HTU21D;63800;51.972;5.682;2023-03-11T07:18:56;-0.40;91.02
75217;HTU21D;63800;51.972;5.682;2023-03-11T07:21:23;-0.37;91.02
75217;HTU21D;63800;51.972;5.682;2023-03-11T07:23:53;-0.30;91.10
75217;HTU21D;63800;51.972;5.682;2023-03-11T07:26:19;-0.25;91.76
75217;HTU21D;63800;51.972;5.682;2023-03-11T07:28:45;-0.22;92.27
75217;HTU21D;63800;51.972;5.682;2023-03-11T07:31:14;-0.23;92.41
75217;HTU21D;63800;51.972;5.682;2023-03-11T07:33:40;-0.06;90.44
75217;HTU21D;63800;51.972;5.682;2023-03-11T07:36:11;0.21;88.42
75217;HTU21D;63800;51.972;5.682;2023-03-11T07:38:37;0.45;88.14
75217;HTU21D;63800;51.972;5.682;2023-03-11T07:41:03;0.50;88.06
75217;HTU21D;63800;51.972;5.682;2023-03-11T07:43:29;0.93;84.10
75217;HTU21D;63800;51.972;5.682;2023-03-11T07:46:08;1.42;78.10
75217;HTU21D;63800;51.972;5.682;2023-03-11T07:48:35;2.64;74.70
75217;HTU21D;63800;51.972;5.682;2023-03-11T07:51:03;2.24;77.92
75217;HTU21D;63800;51.972;5.682;2023-03-11T07:53:29;1.70;79.94
75217;HTU21D;63800;51.972;5.682;2023-03-11T07:55:56;1.49;81.01
75217;HTU21D;63800;51.972;5.682;2023-03-11T07:58:22;1.06;83.33
75217;HTU21D;63800;51.972;5.682;2023-03-11T08:00:47;1.23;83.55
75217;HTU21D;63800;51.972;5.682;2023-03-11T08:03:13;0.99;83.20
75217;HTU21D;63800;51.972;5.682;2023-03-11T08:05:38;1.02;84.03
75217;HTU21D;63800;51.972;5.682;2023-03-11T08:08:04;1.07;83.62
75217;HTU21D;63800;51.972;5.682;2023-03-11T08:10:29;1.12;84.58
75217;HTU21D;63800;51.972;5.682;2023-03-11T08:12:54;1.12;82.23
75217;HTU21D;63800;51.972;5.682;2023-03-11T08:15:20;1.32;82.32
75217;HTU21D;63800;51.972;5.682;2023-03-11T08:17:45;1.47;80.01
75217;HTU21D;63800;51.972;5.682;2023-03-11T08:20:11;1.66;79.34
75217;HTU21D;63800;51.972;5.682;2023-03-11T08:22:37;1.63;79.66
75217;HTU21D;63800;51.972;5.682;2023-03-11T08:25:03;1.71;79.02
75217;HTU21D;63800;51.972;5.682;2023-03-11T08:27:28;1.87;76.92
75217;HTU21D;63800;51.972;5.682;2023-03-11T08:29:54;1.90;79.05
75217;HTU21D;63800;51.972;5.682;2023-03-11T08:32:19;1.92;79.46
75217;HTU21D;63800;51.972;5.682;2023-03-11T08:34:45;1.78;77.56
75217;HTU21D;63800;51.972;5.682;2023-03-11T08:37:10;1.84;79.06
75217;HTU21D;63800;51.972;5.682;2023-03-11T08:39:39;1.85;76.63
75217;HTU21D;63800;51.972;5.682;2023-03-11T08:42:04;1.84;76.52
75217;HTU21D;63800;51.972;5.682;2023-03-11T08:44:30;1.99;74.03
75217;HTU21D;63800;51.972;5.682;2023-03-11T08:46:55;2.09;73.70
75217;HTU21D;63800;51.972;5.682;2023-03-11T08:49:21;2.11;72.99
75217;HTU21D;63800;51.972;5.682;2023-03-11T08:51:46;2.28;73.78
75217;HTU21D;63800;51.972;5.682;2023-03-11T08:54:11;2.31;70.68
75217;HTU21D;63800;51.972;5.682;2023-03-11T08:56:37;2.42;71.37
75217;HTU21D;63800;51.972;5.682;2023-03-11T08:59:02;2.54;71.10
75217;HTU21D;63800;51.972;5.682;2023-03-11T09:01:28;2.56;73.59
75217;HTU21D;63800;51.972;5.682;2023-03-11T09:03:54;2.56;69.03
75217;HTU21D;63800;51.972;5.682;2023-03-11T09:06:20;2.58;69.07
75217;HTU21D;63800;51.972;5.682;2023-03-11T09:08:47;2.64;69.89
75217;HTU21D;63800;51.972;5.682;2023-03-11T09:11:13;2.68;68.09
75217;HTU21D;63800;51.972;5.682;2023-03-11T09:13:40;2.75;67.94
75217;HTU21D;63800;51.972;5.682;2023-03-11T09:16:16;2.83;68.82
75217;HTU21D;63800;51.972;5.682;2023-03-11T09:18:42;2.87;66.33
75217;HTU21D;63800;51.972;5.682;2023-03-11T09:21:12;3.05;68.53
75217;HTU21D;63800;51.972;5.682;2023-03-11T09:23:38;3.14;68.47
75217;HTU21D;63800;51.972;5.682;2023-03-11T09:26:04;3.13;66.06
75217;HTU21D;63800;51.972;5.682;2023-03-11T09:28:29;3.02;65.81
75217;HTU21D;63800;51.972;5.682;2023-03-11T09:30:55;3.35;66.68
75217;HTU21D;63800;51.972;5.682;2023-03-11T09:33:21;3.47;64.54
75217;HTU21D;63800;51.972;5.682;2023-03-11T09:35:47;3.58;63.54
75217;HTU21D;63800;51.972;5.682;2023-03-11T09:38:13;3.55;60.37
75217;HTU21D;63800;51.972;5.682;2023-03-11T09:45:54;3.61;62.88
75217;HTU21D;63800;51.972;5.682;2023-03-11T09:48:31;3.62;65.47
75217;HTU21D;63800;51.972;5.682;2023-03-11T09:51:07;3.82;66.45
75217;HTU21D;63800;51.972;5.682;2023-03-11T09:53:43;3.85;67.02
75217;HTU21D;63800;51.972;5.682;2023-03-11T09:56:14;3.80;66.55
75217;HTU21D;63800;51.972;5.682;2023-03-11T09:58:55;4.00;66.59
75217;HTU21D;63800;51.972;5.682;2023-03-11T10:01:35;3.95;62.60
75217;HTU21D;63800;51.972;5.682;2023-03-11T10:04:10;4.32;64.02
75217;HTU21D;63800;51.972;5.682;2023-03-11T10:06:38;3.98;64.01
75217;HTU21D;63800;51.972;5.682;2023-03-11T10:20:21;4.78;62.62
75217;HTU21D;63800;51.972;5.682;2023-03-11T10:25:40;5.21;67.97
75217;HTU21D;63800;51.972;5.682;2023-03-11T10:28:16;5.31;61.57
75217;HTU21D;63800;51.972;5.682;2023-03-11T10:30:46;5.33;60.56
75217;HTU21D;63800;51.972;5.682;2023-03-11T10:35:51;5.10;61.26
75217;HTU21D;63800;51.972;5.682;2023-03-11T10:38:36;5.11;61.13
75217;HTU21D;63800;51.972;5.682;2023-03-11T10:41:41;5.38;59.45
75217;HTU21D;63800;51.972;5.682;2023-03-11T10:44:18;5.78;61.29
75217;HTU21D;63800;51.972;5.682;2023-03-11T10:46:46;5.67;63.44
75217;HTU21D;63800;51.972;5.682;2023-03-11T10:49:13;5.22;61.02
75217;HTU21D;63800;51.972;5.682;2023-03-11T10:51:41;4.98;60.24
75217;HTU21D;63800;51.972;5.682;2023-03-11T10:54:37;5.32;60.64
75217;HTU21D;63800;51.972;5.682;2023-03-11T10:57:23;5.80;58.71
75217;HTU21D;63800;51.972;5.682;2023-03-11T10:59:52;5.74;58.50
75217;HTU21D;63800;51.972;5.682;2023-03-11T11:02:22;5.62;60.23
75217;HTU21D;63800;51.972;5.682;2023-03-11T11:05:21;5.83;58.06
75217;HTU21D;63800;51.972;5.682;2023-03-11T11:07:49;5.82;57.98
75217;HTU21D;63800;51.972;5.682;2023-03-11T11:18:04;8.70;48.28
75217;HTU21D;63800;51.972;5.682;2023-03-11T11:20:32;8.58;50.34
75217;HTU21D;63800;51.972;5.682;2023-03-11T11:23:00;9.92;49.69
75217;HTU21D;63800;51.972;5.682;2023-03-11T11:25:38;10.30;46.86
75217;HTU21D;63800;51.972;5.682;2023-03-11T11:28:15;10.86;46.64
75217;HTU21D;63800;51.972;5.682;2023-03-11T11:33:26;11.19;44.61
75217;HTU21D;63800;51.972;5.682;2023-03-11T11:35:55;12.29;44.56
75217;HTU21D;63800;51.972;5.682;2023-03-11T11:38:23;11.82;45.16
75217;HTU21D;63800;51.972;5.682;2023-03-11T11:40:49;11.76;40.66
75217;HTU21D;63800;51.972;5.682;2023-03-11T11:43:18;12.42;39.62
75217;HTU21D;63800;51.972;5.682;2023-03-11T11:46:00;12.99;42.45
75217;HTU21D;63800;51.972;5.682;2023-03-11T11:48:48;13.66;39.64
75217;HTU21D;63800;51.972;5.682;2023-03-11T11:51:21;12.78;41.58
75217;HTU21D;63800;51.972;5.682;2023-03-11T11:53:57;14.27;35.98
75217;HTU21D;63800;51.972;5.682;2023-03-11T11:56:25;16.94;31.32
75217;HTU21D;63800;51.972;5.682;2023-03-11T11:58:51;15.23;32.92
75217;HTU21D;63800;51.972;5.682;2023-03-11T12:01:29;13.43;39.97
75217;HTU21D;63800;51.972;5.682;2023-03-11T12:07:09;15.45;33.89
75217;HTU21D;63800;51.972;5.682;2023-03-11T12:12:40;16.51;31.79
75217;HTU21D;63800;51.972;5.682;2023-03-11T12:15:27;16.52;30.23
75217;HTU21D;63800;51.972;5.682;2023-03-11T12:17:58;16.76;32.82
75217;HTU21D;63800;51.972;5.682;2023-03-11T12:20:36;15.71;35.95
75217;HTU21D;63800;51.972;5.682;2023-03-11T12:23:16;13.05;38.93
75217;HTU21D;63800;51.972;5.682;2023-03-11T12:28:23;14.14;34.79
75217;HTU21D;63800;51.972;5.682;2023-03-11T12:30:59;13.53;36.16
75217;HTU21D;63800;51.972;5.682;2023-03-11T12:33:36;15.71;32.18
75217;HTU21D;63800;51.972;5.682;2023-03-11T12:36:03;12.87;33.31
75217;HTU21D;63800;51.972;5.682;2023-03-11T12:38:37;12.55;34.53
75217;HTU21D;63800;51.972;5.682;2023-03-11T12:41:25;12.23;38.05
75217;HTU21D;63800;51.972;5.682;2023-03-11T12:46:17;15.11;29.10
75217;HTU21D;63800;51.972;5.682;2023-03-11T12:53:53;13.14;32.95
75217;HTU21D;63800;51.972;5.682;2023-03-11T12:56:28;12.77;31.70
75217;HTU21D;63800;51.972;5.682;2023-03-11T13:01:57;12.63;33.07
75217;HTU21D;63800;51.972;5.682;2023-03-11T13:09:39;12.72;33.79
75217;HTU21D;63800;51.972;5.682;2023-03-11T13:25:41;15.44;33.13
75217;HTU21D;63800;51.972;5.682;2023-03-11T13:30:48;14.83;33.99
75217;HTU21D;63800;51.972;5.682;2023-03-11T13:33:31;14.60;32.15
75217;HTU21D;63800;51.972;5.682;2023-03-11T13:41:51;13.82;32.60
75217;HTU21D;63800;51.972;5.682;2023-03-11T13:47:18;13.31;33.41
75217;HTU21D;63800;51.972;5.682;2023-03-11T13:50:06;12.75;34.70
75217;HTU21D;63800;51.972;5.682;2023-03-11T13:52:37;12.53;34.68
75217;HTU21D;63800;51.972;5.682;2023-03-11T13:55:12;13.38;32.96
75217;HTU21D;63800;51.972;5.682;2023-03-11T13:57:48;12.85;33.57
75217;HTU21D;63800;51.972;5.682;2023-03-11T14:00:19;12.63;35.70
75217;HTU21D;63800;51.972;5.682;2023-03-11T14:03:10;10.39;35.00
75217;HTU21D;63800;51.972;5.682;2023-03-11T14:05:43;11.49;36.54
75217;HTU21D;63800;51.972;5.682;2023-03-11T14:08:28;9.81;39.94
75217;HTU21D;63800;51.972;5.682;2023-03-11T14:13:22;9.77;37.88
75217;HTU21D;63800;51.972;5.682;2023-03-11T14:18:44;9.48;41.00
75217;HTU21D;63800;51.972;5.682;2023-03-11T14:21:21;10.09;37.18
75217;HTU21D;63800;51.972;5.682;2023-03-11T14:23:49;9.91;39.34
75217;HTU21D;63800;51.972;5.682;2023-03-11T14:26:18;9.60;39.74
75217;HTU21D;63800;51.972;5.682;2023-03-11T14:28:56;9.16;40.65
75217;HTU21D;63800;51.972;5.682;2023-03-11T14:31:30;9.06;38.57
75217;HTU21D;63800;51.972;5.682;2023-03-11T14:34:11;8.77;40.55
75217;HTU21D;63800;51.972;5.682;2023-03-11T14:39:33;8.64;39.94
75217;HTU21D;63800;51.972;5.682;2023-03-11T14:42:19;8.72;40.71
75217;HTU21D;63800;51.972;5.682;2023-03-11T14:45:10;8.63;42.08
75217;HTU21D;63800;51.972;5.682;2023-03-11T14:50:05;8.47;42.86
75217;HTU21D;63800;51.972;5.682;2023-03-11T14:53:02;9.17;44.24
75217;HTU21D;63800;51.972;5.682;2023-03-11T14:55:43;8.94;43.24
75217;HTU21D;63800;51.972;5.682;2023-03-11T14:58:26;8.77;45.67
75217;HTU21D;63800;51.972;5.682;2023-03-11T15:03:46;7.90;44.82
75217;HTU21D;63800;51.972;5.682;2023-03-11T15:06:18;8.24;44.66
75217;HTU21D;63800;51.972;5.682;2023-03-11T15:08:49;8.46;44.71
75217;HTU21D;63800;51.972;5.682;2023-03-11T15:11:26;7.73;41.34
75217;HTU21D;63800;51.972;5.682;2023-03-11T15:13:54;7.52;42.49
75217;HTU21D;63800;51.972;5.682;2023-03-11T15:16:31;7.93;43.34
75217;HTU21D;63800;51.972;5.682;2023-03-11T15:19:00;7.87;42.05
75217;HTU21D;63800;51.972;5.682;2023-03-11T15:21:26;7.39;43.35
75217;HTU21D;63800;51.972;5.682;2023-03-11T15:24:00;7.29;43.37
75217;HTU21D;63800;51.972;5.682;2023-03-11T15:26:29;6.93;44.19
75217;HTU21D;63800;51.972;5.682;2023-03-11T15:29:00;7.54;45.13
75217;HTU21D;63800;51.972;5.682;2023-03-11T15:31:29;7.53;44.00
75217;HTU21D;63800;51.972;5.682;2023-03-11T15:34:07;7.52;42.16
75217;HTU21D;63800;51.972;5.682;2023-03-11T15:36:35;7.45;43.60
75217;HTU21D;63800;51.972;5.682;2023-03-11T15:42:09;7.46;43.26
75217;HTU21D;63800;51.972;5.682;2023-03-11T15:47:16;7.35;42.71
75217;HTU21D;63800;51.972;5.682;2023-03-11T15:49:42;7.71;44.54
75217;HTU21D;63800;51.972;5.682;2023-03-11T15:52:08;7.49;44.11
75217;HTU21D;63800;51.972;5.682;2023-03-11T15:54:34;7.43;43.90
75217;HTU21D;63800;51.972;5.682;2023-03-11T15:57:00;7.46;43.75
75217;HTU21D;63800;51.972;5.682;2023-03-11T15:59:26;7.69;44.85
75217;HTU21D;63800;51.972;5.682;2023-03-11T16:01:52;7.60;43.28
75217;HTU21D;63800;51.972;5.682;2023-03-11T16:04:19;7.22;42.77
75217;HTU21D;63800;51.972;5.682;2023-03-11T16:06:46;7.23;44.59
75217;HTU21D;63800;51.972;5.682;2023-03-11T16:09:12;6.97;43.61
75217;HTU21D;63800;51.972;5.682;2023-03-11T16:11:38;6.93;41.71
75217;HTU21D;63800;51.972;5.682;2023-03-11T16:14:05;7.04;42.20
75217;HTU21D;63800;51.972;5.682;2023-03-11T16:16:31;6.79;40.99
75217;HTU21D;63800;51.972;5.682;2023-03-11T16:18:57;6.68;41.96
75217;HTU21D;63800;51.972;5.682;2023-03-11T16:21:25;6.83;43.93
75217;HTU21D;63800;51.972;5.682;2023-03-11T16:23:53;6.93;41.84
75217;HTU21D;63800;51.972;5.682;2023-03-11T16:26:18;7.00;45.03
75217;HTU21D;63800;51.972;5.682;2023-03-11T16:28:46;7.05;43.96
75217;HTU21D;63800;51.972;5.682;2023-03-11T16:31:11;7.01;43.12
75217;HTU21D;63800;51.972;5.682;2023-03-11T16:33:37;6.81;42.39
75217;HTU21D;63800;51.972;5.682;2023-03-11T16:36:03;6.86;43.49
75217;HTU21D;63800;51.972;5.682;2023-03-11T16:38:30;6.73;41.78
75217;HTU21D;63800;51.972;5.682;2023-03-11T16:41:00;6.56;40.72
75217;HTU21D;63800;51.972;5.682;2023-03-11T16:43:27;6.60;42.16
75217;HTU21D;63800;51.972;5.682;2023-03-11T16:45:53;6.49;41.03
75217;HTU21D;63800;51.972;5.682;2023-03-11T16:48:22;6.61;44.28
75217;HTU21D;63800;51.972;5.682;2023-03-11T16:50:48;6.60;43.39
75217;HTU21D;63800;51.972;5.682;2023-03-11T16:53:14;6.45;43.06
75217;HTU21D;63800;51.972;5.682;2023-03-11T16:55:43;6.60;44.02
75217;HTU21D;63800;51.972;5.682;2023-03-11T16:58:09;6.35;42.48
75217;HTU21D;63800;51.972;5.682;2023-03-11T17:00:34;6.49;46.73
75217;HTU21D;63800;51.972;5.682;2023-03-11T17:03:00;6.25;42.30
75217;HTU21D;63800;51.972;5.682;2023-03-11T17:05:25;6.40;43.53
75217;HTU21D;63800;51.972;5.682;2023-03-11T17:07:55;6.53;45.88
75217;HTU21D;63800;51.972;5.682;2023-03-11T17:10:26;6.21;47.63
75217;HTU21D;63800;51.972;5.682;2023-03-11T17:12:53;6.06;50.87
75217;HTU21D;63800;51.972;5.682;2023-03-11T17:15:19;5.94;44.11
75217;HTU21D;63800;51.972;5.682;2023-03-11T17:17:44;5.81;45.06
75217;HTU21D;63800;51.972;5.682;2023-03-11T17:20:10;5.94;52.97
75217;HTU21D;63800;51.972;5.682;2023-03-11T17:22:36;6.05;51.38